Hoag, Nebraska
Current Conditions -  °F | °C
As of 10:15 PM on Friday 19 Dec 2014 (Local Time) from KBIE Reporting Station
Overcast Overcast  
Wind Chill: 25°   Ceiling: 900
Heat Index: 32°   Visibility: 7mi
Dew Point: 31°   Wind: 8mph
Humidity: 94%   Direction: 160°SSE
Pressure: 30.12"   Gusts: NA
Location:  40.2674°N, 96.7699°W
Report Text: KBIE 200415Z AUTO 16007KT 7SM BKN009 OVC013 00/M01 A3012 RMK AO2 T00001008
Loading
Personal Weather Stations






























Interactive Weather Map New forecast layout! Learn more

10-Day Weather Forecast

Advertisements
Track Severe Weather on mobile